Vohburg — V2OW7 — position and weather

sailwx.info

Track history (hours):
 
Tides and Currents Weather Stations Pressure Air Temp Water Temp Dewpoint Dewpoint Depression Visibility Wind Speed Wind Dir Waves Ship Positions

Vohburg

Last reported at 2017-Apr-27 03:12 UTC. Time now 2017-Apr-27 11:01 UTC.
Position N 59°42' E 024°13'.

Length 140 m; draft 7.4 m.

Type: Ship. MMSI: 305773000.

Date/timePositionNaut miles runAvg speedWind from/ knotsBaromVisibWave heightAir tempDewpointWater temp
2017-Apr-27 03:12N 59°42' E 024°13'315.9
2017-Apr-27 03:00N 59°41' E 024°08'815.9
2017-Apr-27 02:30N 59°39' E 023°53'816.2
2017-Apr-27 02:00N 59°37' E 023°37'816.2
2017-Apr-27 01:30N 59°34' E 023°22'816.1
2017-Apr-27 01:00N 59°32' E 023°07'916.8
2017-Apr-27 00:28N 59°29' E 022°50'32417.1
2017-Apr-26 05:28N 55°42' E 015°38'817.0
2017-Apr-26 04:59N 55°38' E 015°26'917.3
2017-Apr-26 04:29N 55°34' E 015°12'817.3
2017-Apr-26 04:01N 55°30' E 014°59'917.1
2017-Apr-26 03:30N 55°26' E 014°46'816.7
2017-Apr-26 03:00N 55°21' E 014°35'816.9
2017-Apr-26 02:30N 55°14' E 014°25'816.9
2017-Apr-26 02:00N 55°08' E 014°16'816.6
2017-Apr-26 01:30N 55°01' E 014°06'816.8
2017-Apr-26 01:00N 54°59' E 013°53'816.8
2017-Apr-26 00:30N 54°55' E 013°39'917.1
2017-Apr-26 00:00N 54°52' E 013°25'817.0
2017-Apr-25 23:30N 54°50' E 013°11'917.1
2017-Apr-25 23:00N 54°47' E 012°57'2617.2
2017-Apr-25 21:29N 54°34' E 012°18'917.4
2017-Apr-25 21:00N 54°26' E 012°12'3717.4
2017-Apr-25 18:51N 54°09' E 011°15'4 0.2
2017-Apr-25 03:50N 54°11' E 011°10'816.6
2017-Apr-25 03:22N 54°16' E 011°19'616.6
2017-Apr-25 03:00N 54°22' E 011°21'816.6
2017-Apr-25 02:31N 54°30' E 011°21'816.1
2017-Apr-25 02:01N 54°35' E 011°09'816.9
2017-Apr-25 01:31N 54°40' E 010°57'815.7
2017-Apr-25 01:01N 54°47' E 010°51'917.1
2017-Apr-25 00:30N 54°55' E 010°54'816.3
2017-Apr-25 00:01N 55°02' E 011°01'815.9
2017-Apr-24 23:30N 55°10' E 011°03'4913.1
2017-Apr-24 19:43N 55°59' E 010°51'517.0
2017-Apr-24 19:24N 56°01' E 010°43'716.6
2017-Apr-24 19:00N 56°05' E 010°32'816.9
2017-Apr-24 18:30N 56°09' E 010°19'3 5.0
2017-Apr-24 17:59N 56°09' E 010°14'0 0.0
2017-Apr-24 17:30N 56°09' E 010°14'0 0.0
2017-Apr-24 17:00N 56°09' E 010°14'0 0.0
2017-Apr-24 16:30N 56°09' E 010°14'0 0.0
2017-Apr-24 15:59N 56°09' E 010°14'0 0.0
2017-Apr-24 15:29N 56°09' E 010°14'0 0.0
2017-Apr-24 14:56N 56°09' E 010°14'0 0.0
2017-Apr-24 14:29N 56°09' E 010°14'0 0.0
2017-Apr-24 13:29N 56°09' E 010°14'0 0.0
2017-Apr-24 12:59N 56°09' E 010°14'0 0.0
2017-Apr-24 12:29N 56°09' E 010°14'0 0.0
2017-Apr-24 11:59N 56°09' E 010°14'0 0.0
2017-Apr-24 11:29N 56°09' E 010°14'0 0.0
2017-Apr-24 10:59N 56°09' E 010°14'0 0.0
2017-Apr-24 10:30N 56°09' E 010°14'1 1.6
2017-Apr-24 10:00N 56°09' E 010°15'5 9.4
2017-Apr-24 09:30N 56°07' E 010°23'612.0
2017-Apr-24 09:00N 56°05' E 010°33'612.0
2017-Apr-24 08:30N 56°03' E 010°43'611.7
2017-Apr-24 08:00N 56°05' E 010°54'911.9
2017-Apr-24 07:16N 56°12' E 011°02'412.0
2017-Apr-24 06:58N 56°16' E 011°03'6212.0
2017-Apr-24 01:48N 57°17' E 010°42'413.5
2017-Apr-24 01:30N 57°21' E 010°42'713.4
2017-Apr-24 01:00N 57°27' E 010°43'713.6
2017-Apr-24 00:30N 57°34' E 010°44'713.3
2017-Apr-24 00:00N 57°41' E 010°44'611.9
2017-Apr-23 23:30N 57°47' E 010°42'815.8
2017-Apr-23 23:00N 57°46' E 010°28'816.1
2017-Apr-23 22:30N 57°44' E 010°13'816.6
2017-Apr-23 22:00N 57°42' E 009°58'816.3
2017-Apr-23 21:30N 57°38' E 009°45'816.4
2017-Apr-23 21:00N 57°33' E 009°32'31514.9
2017-Apr-22 23:52N 53°10' E 004°29'615.9
2017-Apr-22 23:28N 53°04' E 004°24'715.8
2017-Apr-22 23:00N 52°57' E 004°18'815.7
2017-Apr-22 22:30N 52°50' E 004°12'915.3
2017-Apr-22 21:55N 52°43' E 004°04'815.5
2017-Apr-22 21:24N 52°37' E 003°56'5614.7
2017-Apr-22 17:36N 51°47' E 003°14'315.1
2017-Apr-22 17:23N 51°45' E 003°09'615.0
2017-Apr-22 17:00N 51°41' E 003°03'714.8
2017-Apr-22 16:30N 51°36' E 002°55'815.0
2017-Apr-22 16:00N 51°30' E 002°48'713.9
2017-Apr-22 15:30N 51°23' E 002°43'5 9.9
2017-Apr-22 15:01N 51°22' E 002°51'816.7
2017-Apr-22 14:31N 51°24' E 003°04'6 5.6
2017-Apr-22 13:29N 51°21' E 003°11'0 0.0
2017-Apr-22 12:59N 51°21' E 003°11'0 0.0
2017-Apr-22 12:29N 51°21' E 003°11'0 0.0
2017-Apr-22 11:59N 51°21' E 003°11'0 0.0
2017-Apr-22 11:29N 51°21' E 003°11'0 0.0
2017-Apr-22 10:59N 51°21' E 003°11'0 0.0
2017-Apr-22 10:29N 51°21' E 003°11'0 0.0
2017-Apr-22 09:59N 51°21' E 003°11'0 0.0
2017-Apr-22 09:29N 51°21' E 003°11'0 0.0
2017-Apr-22 08:59N 51°21' E 003°11'0 0.0
2017-Apr-22 08:29N 51°21' E 003°11'0 0.0
2017-Apr-22 07:59N 51°21' E 003°11'0 0.0
2017-Apr-22 07:29N 51°21' E 003°11'0 0.0
2017-Apr-22 06:59N 51°21' E 003°11'0 0.0
2017-Apr-22 06:28N 51°21' E 003°11'0 0.0
2017-Apr-22 06:00N 51°21' E 003°11'0 0.0
2017-Apr-22 05:30N 51°21' E 003°11'0 0.0
2017-Apr-22 05:00N 51°21' E 003°11'0 0.0
2017-Apr-22 04:30N 51°21' E 003°11'0 0.0
2017-Apr-22 03:59N 51°21' E 003°11'0 0.0
2017-Apr-22 03:29N 51°21' E 003°11'0 0.0
2017-Apr-22 02:59N 51°21' E 003°11'0 0.0
2017-Apr-22 02:29N 51°21' E 003°11'0 0.0
2017-Apr-22 01:59N 51°21' E 003°11'0 0.0
2017-Apr-22 01:29N 51°21' E 003°11'0 0.0
2017-Apr-22 00:59N 51°21' E 003°11'0 0.0
2017-Apr-22 00:29N 51°21' E 003°11'0 0.0
2017-Apr-21 23:59N 51°21' E 003°11'0 0.0
2017-Apr-21 23:29N 51°21' E 003°11'0 0.0
2017-Apr-21 22:59N 51°21' E 003°11'1 2.0
2017-Apr-21 22:30N 51°22' E 003°11'713.5
2017-Apr-21 22:01N 51°24' E 003°01'917.3
2017-Apr-21 21:30N 51°22' E 002°48'713.8
2017-Apr-21 21:00N 51°22' E 002°36'815.7
2017-Apr-21 20:30N 51°21' E 002°24'714.8
2017-Apr-21 20:00N 51°19' E 002°13'714.3
2017-Apr-21 19:31N 51°22' E 002°02'714.3
2017-Apr-21 19:01N 51°27' E 001°54'713.9
2017-Apr-21 18:30N 51°29' E 001°43'714.9
2017-Apr-21 18:01N 51°27' E 001°31'612.6
2017-Apr-21 17:30N 51°28' E 001°21'815.3
2017-Apr-21 17:00N 51°29' E 001°09'714.9
2017-Apr-21 16:31N 51°29' E 000°57'815.2
2017-Apr-21 16:00N 51°27' E 000°45'3 5.6
2017-Apr-21 15:30N 51°26' E 000°41'0 0.0
2017-Apr-21 15:00N 51°26' E 000°41'0 0.0
2017-Apr-21 14:30N 51°26' E 000°41'0 0.0
2017-Apr-21 13:30N 51°26' E 000°41'0 0.0
2017-Apr-21 13:00N 51°26' E 000°41'0 0.0
2017-Apr-21 12:30N 51°26' E 000°41'0 0.0
2017-Apr-21 12:00N 51°26' E 000°41'0 0.0
2017-Apr-21 11:30N 51°26' E 000°41'0 0.0
2017-Apr-21 11:00N 51°26' E 000°41'0 0.0
2017-Apr-21 10:30N 51°26' E 000°41'0 0.0
2017-Apr-21 10:00N 51°26' E 000°41'0 0.0
2017-Apr-21 09:28N 51°26' E 000°41'0 0.0
2017-Apr-21 09:00N 51°26' E 000°41'0 0.0
2017-Apr-21 08:29N 51°26' E 000°41'0 0.0
2017-Apr-21 07:58N 51°26' E 000°41'0 0.0
2017-Apr-21 07:28N 51°26' E 000°41'0 0.1
2017-Apr-21 07:00N 51°26' E 000°41'510.1
2017-Apr-21 06:31N 51°28' E 000°49'917.3
2017-Apr-21 06:01N 51°30' E 001°02'816.8
2017-Apr-21 05:31N 51°29' E 001°16'816.5
2017-Apr-21 05:01N 51°27' E 001°28'3 6.8
2017-Apr-21 04:30N 51°28' E 001°34'611.5
2017-Apr-21 04:01N 51°32' E 001°39'611.9
2017-Apr-21 03:31N 51°37' E 001°44'611.9
2017-Apr-21 03:01N 51°43' E 001°44'612.0
2017-Apr-21 02:31N 51°49' E 001°44'612.5
2017-Apr-21 02:01N 51°55' E 001°44'714.0
2017-Apr-21 01:31N 52°02' E 001°47'713.8
2017-Apr-21 01:01N 52°09' E 001°49'2413.4
2017-Apr-20 23:14N 52°32' E 001°54'312.7
2017-Apr-20 23:01N 52°35' E 001°55'612.3
2017-Apr-20 22:31N 52°41' E 001°56'511.0
2017-Apr-20 22:01N 52°46' E 001°52'612.4
2017-Apr-20 21:31N 52°50' E 001°43'612.7
2017-Apr-20 21:01N 52°53' E 001°35'612.3
2017-Apr-20 20:31N 52°58' E 001°29'612.1
2017-Apr-20 20:00N 53°04' E 001°24'612.3
2017-Apr-20 19:31N 53°09' E 001°19'612.4
2017-Apr-20 19:01N 53°15' E 001°15'612.6
2017-Apr-20 18:31N 53°20' E 001°10'4612.3
2017-Apr-20 14:47N 53°57' E 000°24'412.6
2017-Apr-20 14:31N 53°60' E 000°19'1313.0
2017-Apr-20 13:31N 54°09' E 000°04'713.3
2017-Apr-20 13:01N 54°14' W 000°02'713.3
2017-Apr-20 12:31N 54°20' W 000°09'713.5
2017-Apr-20 12:00N 54°25' W 000°16'713.7
2017-Apr-20 11:31N 54°30' W 000°23'2013.6
2017-Apr-20 10:04N 54°38' W 000°54'113.8
2017-Apr-20 09:58N 54°39' W 000°57'6 0.5
2017-Apr-19 22:29N 54°41' W 001°06'3 6.7
2017-Apr-19 22:00N 54°44' W 001°07'1 2.2
2017-Apr-19 21:23N 54°45' W 001°09'0 0.0
2017-Apr-19 20:59N 54°45' W 001°09'0 0.0
2017-Apr-19 20:29N 54°45' W 001°09'0 0.1
2017-Apr-19 19:59N 54°45' W 001°09'0 0.0
2017-Apr-19 19:29N 54°45' W 001°09'0 0.1
2017-Apr-19 18:59N 54°45' W 001°09'0 0.1
2017-Apr-19 18:29N 54°45' W 001°09'0 0.0
2017-Apr-19 17:59N 54°45' W 001°09'0 0.0
2017-Apr-19 17:29N 54°45' W 001°09'0 0.0
2017-Apr-19 16:59N 54°45' W 001°09'0 0.0
2017-Apr-19 16:29N 54°45' W 001°09'0 0.0
2017-Apr-19 15:58N 54°45' W 001°09'0 0.2
2017-Apr-19 15:30N 54°45' W 001°09'5 9.1
2017-Apr-19 15:00N 54°46' W 001°02'714.0
2017-Apr-19 14:30N 54°48' W 000°50'40613.9
2017-Apr-18 09:13N 57°43' E 010°10'314.7
2017-Apr-18 09:00N 57°44' E 010°15'714.8
2017-Apr-18 08:30N 57°47' E 010°28'714.3
2017-Apr-18 08:00N 57°48' E 010°41'713.4
2017-Apr-18 07:30N 57°45' E 010°52'713.9
2017-Apr-18 07:00N 57°40' E 011°02'714.1
2017-Apr-18 06:29N 57°35' E 011°12'714.3
2017-Apr-18 06:00N 57°30' E 011°21'713.8
2017-Apr-18 05:31N 57°25' E 011°29'714.2
2017-Apr-18 05:00N 57°18' E 011°33'714.5
2017-Apr-18 04:30N 57°11' E 011°38'714.6
2017-Apr-18 04:00N 57°04' E 011°43'5414.1
2017-Apr-18 00:08N 56°15' E 012°23'215.2
2017-Apr-18 00:00N 56°13' E 012°25'815.7
2017-Apr-17 23:30N 56°07' E 012°33'815.3
2017-Apr-17 23:00N 56°01' E 012°41'714.4
2017-Apr-17 22:30N 55°54' E 012°44'714.6
2017-Apr-17 22:00N 55°46' E 012°42'815.6
2017-Apr-17 21:30N 55°39' E 012°42'612.8
2017-Apr-17 21:01N 55°32' E 012°42'815.0
2017-Apr-17 20:30N 55°25' E 012°41'713.2
2017-Apr-17 20:00N 55°18' E 012°43'714.7
2017-Apr-17 19:30N 55°16' E 012°55'714.4
2017-Apr-17 19:00N 55°15' E 013°08'714.4
2017-Apr-17 18:30N 55°15' E 013°20'714.5
2017-Apr-17 18:00N 55°14' E 013°33'714.4
2017-Apr-17 17:29N 55°14' E 013°46'714.1
2017-Apr-17 17:00N 55°13' E 013°58'714.1
2017-Apr-17 16:30N 55°13' E 014°10'713.2
2017-Apr-17 16:00N 55°16' E 014°21'714.5
2017-Apr-17 15:30N 55°22' E 014°29'714.3
2017-Apr-17 15:00N 55°27' E 014°37'1414.3
2017-Apr-17 14:00N 55°34' E 014°59'714.5
2017-Apr-17 13:30N 55°38' E 015°10'  
Track history (hours):
 
Tides and Currents Weather Stations Pressure Air Temp Water Temp Dewpoint Dewpoint Depression Visibility Wind Speed Wind Dir Waves Ship Positions

Vohburg

Last reported at 2017-Apr-27 03:12 UTC. Time now 2017-Apr-27 11:01 UTC.
Position N 59°42' E 024°13'.

Length 140 m; draft 7.4 m.

Type: Ship. MMSI: 305773000.

Date/timePositionNaut miles runAvg speedWind from/ knotsBaromVisibWave heightAir tempDewpointWater temp
2017-Apr-27 03:12N 59°42' E 024°13'315.9
2017-Apr-27 03:00N 59°41' E 024°08'815.9
2017-Apr-27 02:30N 59°39' E 023°53'816.2
2017-Apr-27 02:00N 59°37' E 023°37'816.2
2017-Apr-27 01:30N 59°34' E 023°22'816.1
2017-Apr-27 01:00N 59°32' E 023°07'916.8
2017-Apr-27 00:28N 59°29' E 022°50'32417.1
2017-Apr-26 05:28N 55°42' E 015°38'817.0
2017-Apr-26 04:59N 55°38' E 015°26'917.3
2017-Apr-26 04:29N 55°34' E 015°12'817.3
2017-Apr-26 04:01N 55°30' E 014°59'917.1
2017-Apr-26 03:30N 55°26' E 014°46'816.7
2017-Apr-26 03:00N 55°21' E 014°35'816.9
2017-Apr-26 02:30N 55°14' E 014°25'816.9
2017-Apr-26 02:00N 55°08' E 014°16'816.6
2017-Apr-26 01:30N 55°01' E 014°06'816.8
2017-Apr-26 01:00N 54°59' E 013°53'816.8
2017-Apr-26 00:30N 54°55' E 013°39'917.1
2017-Apr-26 00:00N 54°52' E 013°25'817.0
2017-Apr-25 23:30N 54°50' E 013°11'917.1
2017-Apr-25 23:00N 54°47' E 012°57'2617.2
2017-Apr-25 21:29N 54°34' E 012°18'917.4
2017-Apr-25 21:00N 54°26' E 012°12'3717.4
2017-Apr-25 18:51N 54°09' E 011°15'4 0.2
2017-Apr-25 03:50N 54°11' E 011°10'816.6
2017-Apr-25 03:22N 54°16' E 011°19'616.6
2017-Apr-25 03:00N 54°22' E 011°21'816.6
2017-Apr-25 02:31N 54°30' E 011°21'816.1
2017-Apr-25 02:01N 54°35' E 011°09'816.9
2017-Apr-25 01:31N 54°40' E 010°57'815.7
2017-Apr-25 01:01N 54°47' E 010°51'917.1
2017-Apr-25 00:30N 54°55' E 010°54'816.3
2017-Apr-25 00:01N 55°02' E 011°01'815.9
2017-Apr-24 23:30N 55°10' E 011°03'4913.1
2017-Apr-24 19:43N 55°59' E 010°51'517.0
2017-Apr-24 19:24N 56°01' E 010°43'716.6
2017-Apr-24 19:00N 56°05' E 010°32'816.9
2017-Apr-24 18:30N 56°09' E 010°19'3 5.0
2017-Apr-24 17:59N 56°09' E 010°14'0 0.0
2017-Apr-24 17:30N 56°09' E 010°14'0 0.0
2017-Apr-24 17:00N 56°09' E 010°14'0 0.0
2017-Apr-24 16:30N 56°09' E 010°14'0 0.0
2017-Apr-24 15:59N 56°09' E 010°14'0 0.0
2017-Apr-24 15:29N 56°09' E 010°14'0 0.0
2017-Apr-24 14:56N 56°09' E 010°14'0 0.0
2017-Apr-24 14:29N 56°09' E 010°14'0 0.0
2017-Apr-24 13:29N 56°09' E 010°14'0 0.0
2017-Apr-24 12:59N 56°09' E 010°14'0 0.0
2017-Apr-24 12:29N 56°09' E 010°14'0 0.0
2017-Apr-24 11:59N 56°09' E 010°14'0 0.0
2017-Apr-24 11:29N 56°09' E 010°14'0 0.0
2017-Apr-24 10:59N 56°09' E 010°14'0 0.0
2017-Apr-24 10:30N 56°09' E 010°14'1 1.6
2017-Apr-24 10:00N 56°09' E 010°15'5 9.4
2017-Apr-24 09:30N 56°07' E 010°23'612.0
2017-Apr-24 09:00N 56°05' E 010°33'612.0
2017-Apr-24 08:30N 56°03' E 010°43'611.7
2017-Apr-24 08:00N 56°05' E 010°54'911.9
2017-Apr-24 07:16N 56°12' E 011°02'412.0
2017-Apr-24 06:58N 56°16' E 011°03'6212.0
2017-Apr-24 01:48N 57°17' E 010°42'413.5
2017-Apr-24 01:30N 57°21' E 010°42'713.4
2017-Apr-24 01:00N 57°27' E 010°43'713.6
2017-Apr-24 00:30N 57°34' E 010°44'713.3
2017-Apr-24 00:00N 57°41' E 010°44'611.9
2017-Apr-23 23:30N 57°47' E 010°42'815.8
2017-Apr-23 23:00N 57°46' E 010°28'816.1
2017-Apr-23 22:30N 57°44' E 010°13'816.6
2017-Apr-23 22:00N 57°42' E 009°58'816.3
2017-Apr-23 21:30N 57°38' E 009°45'816.4
2017-Apr-23 21:00N 57°33' E 009°32'31514.9
2017-Apr-22 23:52N 53°10' E 004°29'615.9
2017-Apr-22 23:28N 53°04' E 004°24'715.8
2017-Apr-22 23:00N 52°57' E 004°18'815.7
2017-Apr-22 22:30N 52°50' E 004°12'915.3
2017-Apr-22 21:55N 52°43' E 004°04'815.5
2017-Apr-22 21:24N 52°37' E 003°56'5614.7
2017-Apr-22 17:36N 51°47' E 003°14'315.1
2017-Apr-22 17:23N 51°45' E 003°09'615.0
2017-Apr-22 17:00N 51°41' E 003°03'714.8
2017-Apr-22 16:30N 51°36' E 002°55'815.0
2017-Apr-22 16:00N 51°30' E 002°48'713.9
2017-Apr-22 15:30N 51°23' E 002°43'5 9.9
2017-Apr-22 15:01N 51°22' E 002°51'816.7
2017-Apr-22 14:31N 51°24' E 003°04'6 5.6
2017-Apr-22 13:29N 51°21' E 003°11'0 0.0
2017-Apr-22 12:59N 51°21' E 003°11'0 0.0
2017-Apr-22 12:29N 51°21' E 003°11'0 0.0
2017-Apr-22 11:59N 51°21' E 003°11'0 0.0
2017-Apr-22 11:29N 51°21' E 003°11'0 0.0
2017-Apr-22 10:59N 51°21' E 003°11'0 0.0
2017-Apr-22 10:29N 51°21' E 003°11'0 0.0
2017-Apr-22 09:59N 51°21' E 003°11'0 0.0
2017-Apr-22 09:29N 51°21' E 003°11'0 0.0
2017-Apr-22 08:59N 51°21' E 003°11'0 0.0
2017-Apr-22 08:29N 51°21' E 003°11'0 0.0
2017-Apr-22 07:59N 51°21' E 003°11'0 0.0
2017-Apr-22 07:29N 51°21' E 003°11'0 0.0
2017-Apr-22 06:59N 51°21' E 003°11'0 0.0
2017-Apr-22 06:28N 51°21' E 003°11'0 0.0
2017-Apr-22 06:00N 51°21' E 003°11'0 0.0
2017-Apr-22 05:30N 51°21' E 003°11'0 0.0
2017-Apr-22 05:00N 51°21' E 003°11'0 0.0
2017-Apr-22 04:30N 51°21' E 003°11'0 0.0
2017-Apr-22 03:59N 51°21' E 003°11'0 0.0
2017-Apr-22 03:29N 51°21' E 003°11'0 0.0
2017-Apr-22 02:59N 51°21' E 003°11'0 0.0
2017-Apr-22 02:29N 51°21' E 003°11'0 0.0
2017-Apr-22 01:59N 51°21' E 003°11'0 0.0
2017-Apr-22 01:29N 51°21' E 003°11'0 0.0
2017-Apr-22 00:59N 51°21' E 003°11'0 0.0
2017-Apr-22 00:29N 51°21' E 003°11'0 0.0
2017-Apr-21 23:59N 51°21' E 003°11'0 0.0
2017-Apr-21 23:29N 51°21' E 003°11'0 0.0
2017-Apr-21 22:59N 51°21' E 003°11'1 2.0
2017-Apr-21 22:30N 51°22' E 003°11'713.5
2017-Apr-21 22:01N 51°24' E 003°01'917.3
2017-Apr-21 21:30N 51°22' E 002°48'713.8
2017-Apr-21 21:00N 51°22' E 002°36'815.7
2017-Apr-21 20:30N 51°21' E 002°24'714.8
2017-Apr-21 20:00N 51°19' E 002°13'714.3
2017-Apr-21 19:31N 51°22' E 002°02'714.3
2017-Apr-21 19:01N 51°27' E 001°54'713.9
2017-Apr-21 18:30N 51°29' E 001°43'714.9
2017-Apr-21 18:01N 51°27' E 001°31'612.6
2017-Apr-21 17:30N 51°28' E 001°21'815.3
2017-Apr-21 17:00N 51°29' E 001°09'714.9
2017-Apr-21 16:31N 51°29' E 000°57'815.2
2017-Apr-21 16:00N 51°27' E 000°45'3 5.6
2017-Apr-21 15:30N 51°26' E 000°41'0 0.0
2017-Apr-21 15:00N 51°26' E 000°41'0 0.0
2017-Apr-21 14:30N 51°26' E 000°41'0 0.0
2017-Apr-21 13:30N 51°26' E 000°41'0 0.0
2017-Apr-21 13:00N 51°26' E 000°41'0 0.0
2017-Apr-21 12:30N 51°26' E 000°41'0 0.0
2017-Apr-21 12:00N 51°26' E 000°41'0 0.0
2017-Apr-21 11:30N 51°26' E 000°41'0 0.0
2017-Apr-21 11:00N 51°26' E 000°41'0 0.0
2017-Apr-21 10:30N 51°26' E 000°41'0 0.0
2017-Apr-21 10:00N 51°26' E 000°41'0 0.0
2017-Apr-21 09:28N 51°26' E 000°41'0 0.0
2017-Apr-21 09:00N 51°26' E 000°41'0 0.0
2017-Apr-21 08:29N 51°26' E 000°41'0 0.0
2017-Apr-21 07:58N 51°26' E 000°41'0 0.0
2017-Apr-21 07:28N 51°26' E 000°41'0 0.1
2017-Apr-21 07:00N 51°26' E 000°41'510.1
2017-Apr-21 06:31N 51°28' E 000°49'917.3
2017-Apr-21 06:01N 51°30' E 001°02'816.8
2017-Apr-21 05:31N 51°29' E 001°16'816.5
2017-Apr-21 05:01N 51°27' E 001°28'3 6.8
2017-Apr-21 04:30N 51°28' E 001°34'611.5
2017-Apr-21 04:01N 51°32' E 001°39'611.9
2017-Apr-21 03:31N 51°37' E 001°44'611.9
2017-Apr-21 03:01N 51°43' E 001°44'612.0
2017-Apr-21 02:31N 51°49' E 001°44'612.5
2017-Apr-21 02:01N 51°55' E 001°44'714.0
2017-Apr-21 01:31N 52°02' E 001°47'713.8
2017-Apr-21 01:01N 52°09' E 001°49'2413.4
2017-Apr-20 23:14N 52°32' E 001°54'312.7
2017-Apr-20 23:01N 52°35' E 001°55'612.3
2017-Apr-20 22:31N 52°41' E 001°56'511.0
2017-Apr-20 22:01N 52°46' E 001°52'612.4
2017-Apr-20 21:31N 52°50' E 001°43'612.7
2017-Apr-20 21:01N 52°53' E 001°35'612.3
2017-Apr-20 20:31N 52°58' E 001°29'612.1
2017-Apr-20 20:00N 53°04' E 001°24'612.3
2017-Apr-20 19:31N 53°09' E 001°19'612.4
2017-Apr-20 19:01N 53°15' E 001°15'612.6
2017-Apr-20 18:31N 53°20' E 001°10'4612.3
2017-Apr-20 14:47N 53°57' E 000°24'412.6
2017-Apr-20 14:31N 53°60' E 000°19'1313.0
2017-Apr-20 13:31N 54°09' E 000°04'713.3
2017-Apr-20 13:01N 54°14' W 000°02'713.3
2017-Apr-20 12:31N 54°20' W 000°09'713.5
2017-Apr-20 12:00N 54°25' W 000°16'713.7
2017-Apr-20 11:31N 54°30' W 000°23'2013.6
2017-Apr-20 10:04N 54°38' W 000°54'113.8
2017-Apr-20 09:58N 54°39' W 000°57'6 0.5
2017-Apr-19 22:29N 54°41' W 001°06'3 6.7
2017-Apr-19 22:00N 54°44' W 001°07'1 2.2
2017-Apr-19 21:23N 54°45' W 001°09'0 0.0
2017-Apr-19 20:59N 54°45' W 001°09'0 0.0
2017-Apr-19 20:29N 54°45' W 001°09'0 0.1
2017-Apr-19 19:59N 54°45' W 001°09'0 0.0
2017-Apr-19 19:29N 54°45' W 001°09'0 0.1
2017-Apr-19 18:59N 54°45' W 001°09'0 0.1
2017-Apr-19 18:29N 54°45' W 001°09'0 0.0
2017-Apr-19 17:59N 54°45' W 001°09'0 0.0
2017-Apr-19 17:29N 54°45' W 001°09'0 0.0
2017-Apr-19 16:59N 54°45' W 001°09'0 0.0
2017-Apr-19 16:29N 54°45' W 001°09'0 0.0
2017-Apr-19 15:58N 54°45' W 001°09'0 0.2
2017-Apr-19 15:30N 54°45' W 001°09'5 9.1
2017-Apr-19 15:00N 54°46' W 001°02'714.0
2017-Apr-19 14:30N 54°48' W 000°50'40613.9
2017-Apr-18 09:13N 57°43' E 010°10'314.7
2017-Apr-18 09:00N 57°44' E 010°15'714.8
2017-Apr-18 08:30N 57°47' E 010°28'714.3
2017-Apr-18 08:00N 57°48' E 010°41'713.4
2017-Apr-18 07:30N 57°45' E 010°52'713.9
2017-Apr-18 07:00N 57°40' E 011°02'714.1
2017-Apr-18 06:29N 57°35' E 011°12'714.3
2017-Apr-18 06:00N 57°30' E 011°21'713.8
2017-Apr-18 05:31N 57°25' E 011°29'714.2
2017-Apr-18 05:00N 57°18' E 011°33'714.5
2017-Apr-18 04:30N 57°11' E 011°38'714.6
2017-Apr-18 04:00N 57°04' E 011°43'5414.1
2017-Apr-18 00:08N 56°15' E 012°23'215.2
2017-Apr-18 00:00N 56°13' E 012°25'815.7
2017-Apr-17 23:30N 56°07' E 012°33'815.3
2017-Apr-17 23:00N 56°01' E 012°41'714.4
2017-Apr-17 22:30N 55°54' E 012°44'714.6
2017-Apr-17 22:00N 55°46' E 012°42'815.6
2017-Apr-17 21:30N 55°39' E 012°42'612.8
2017-Apr-17 21:01N 55°32' E 012°42'815.0
2017-Apr-17 20:30N 55°25' E 012°41'713.2
2017-Apr-17 20:00N 55°18' E 012°43'714.7
2017-Apr-17 19:30N 55°16' E 012°55'714.4
2017-Apr-17 19:00N 55°15' E 013°08'714.4
2017-Apr-17 18:30N 55°15' E 013°20'714.5
2017-Apr-17 18:00N 55°14' E 013°33'714.4
2017-Apr-17 17:29N 55°14' E 013°46'714.1
2017-Apr-17 17:00N 55°13' E 013°58'714.1
2017-Apr-17 16:30N 55°13' E 014°10'713.2
2017-Apr-17 16:00N 55°16' E 014°21'714.5
2017-Apr-17 15:30N 55°22' E 014°29'714.3
2017-Apr-17 15:00N 55°27' E 014°37'1414.3
2017-Apr-17 14:00N 55°34' E 014°59'714.5
2017-Apr-17 13:30N 55°38' E 015°10'  

Dump ship's entire track history